sensor_id;sensor_type;location;lat;lon;timestamp;P1;durP1;ratioP1;P2;durP2;ratioP2
64060;SDS011;60147;55.036;73.242;2022-10-31T00:01:42;16.45;;;7.63;;
64060;SDS011;60147;55.036;73.242;2022-10-31T00:04:08;16.38;;;7.50;;
64060;SDS011;60147;55.036;73.242;2022-10-31T00:06:43;22.92;;;8.57;;
64060;SDS011;60147;55.036;73.242;2022-10-31T00:09:20;19.35;;;7.50;;
64060;SDS011;60147;55.036;73.242;2022-10-31T00:11:46;23.60;;;7.43;;
64060;SDS011;60147;55.036;73.242;2022-10-31T00:14:11;24.27;;;8.02;;
64060;SDS011;60147;55.036;73.242;2022-10-31T00:16:37;15.75;;;6.38;;
64060;SDS011;60147;55.036;73.242;2022-10-31T00:19:04;15.68;;;7.22;;
64060;SDS011;60147;55.036;73.242;2022-10-31T00:21:41;15.52;;;6.68;;
64060;SDS011;60147;55.036;73.242;2022-10-31T00:24:07;13.75;;;6.15;;
64060;SDS011;60147;55.036;73.242;2022-10-31T00:26:34;15.27;;;6.63;;
64060;SDS011;60147;55.036;73.242;2022-10-31T00:29:00;15.38;;;7.22;;
64060;SDS011;60147;55.036;73.242;2022-10-31T00:31:26;17.90;;;7.32;;
64060;SDS011;60147;55.036;73.242;2022-10-31T00:33:57;14.93;;;7.77;;
64060;SDS011;60147;55.036;73.242;2022-10-31T00:36:25;20.10;;;6.82;;
64060;SDS011;60147;55.036;73.242;2022-10-31T00:38:51;18.08;;;6.93;;
64060;SDS011;60147;55.036;73.242;2022-10-31T00:41:20;16.20;;;7.47;;
64060;SDS011;60147;55.036;73.242;2022-10-31T00:43:46;19.48;;;6.97;;
64060;SDS011;60147;55.036;73.242;2022-10-31T00:46:12;13.13;;;7.15;;
64060;SDS011;60147;55.036;73.242;2022-10-31T00:48:38;15.48;;;7.05;;
64060;SDS011;60147;55.036;73.242;2022-10-31T00:51:04;17.13;;;7.80;;
64060;SDS011;60147;55.036;73.242;2022-10-31T00:53:40;16.17;;;7.47;;
64060;SDS011;60147;55.036;73.242;2022-10-31T00:56:06;14.60;;;8.98;;
64060;SDS011;60147;55.036;73.242;2022-10-31T00:58:37;23.67;;;9.30;;
64060;SDS011;60147;55.036;73.242;2022-10-31T01:01:08;53.83;;;12.10;;
64060;SDS011;60147;55.036;73.242;2022-10-31T01:03:34;32.05;;;10.60;;
64060;SDS011;60147;55.036;73.242;2022-10-31T01:08:27;27.73;;;10.73;;
64060;SDS011;60147;55.036;73.242;2022-10-31T01:11:04;43.20;;;13.52;;
64060;SDS011;60147;55.036;73.242;2022-10-31T01:13:32;74.10;;;19.60;;
64060;SDS011;60147;55.036;73.242;2022-10-31T01:15:58;48.58;;;16.00;;
64060;SDS011;60147;55.036;73.242;2022-10-31T01:18:34;72.90;;;18.25;;
64060;SDS011;60147;55.036;73.242;2022-10-31T01:21:01;59.40;;;17.67;;
64060;SDS011;60147;55.036;73.242;2022-10-31T01:23:28;63.33;;;20.48;;
64060;SDS011;60147;55.036;73.242;2022-10-31T01:26:05;57.20;;;21.08;;
64060;SDS011;60147;55.036;73.242;2022-10-31T01:28:37;72.22;;;23.52;;
64060;SDS011;60147;55.036;73.242;2022-10-31T01:31:12;62.83;;;22.70;;
64060;SDS011;60147;55.036;73.242;2022-10-31T01:33:44;67.03;;;23.50;;
64060;SDS011;60147;55.036;73.242;2022-10-31T01:36:16;60.97;;;23.08;;
64060;SDS011;60147;55.036;73.242;2022-10-31T01:38:43;72.72;;;25.33;;
64060;SDS011;60147;55.036;73.242;2022-10-31T01:41:15;55.88;;;21.17;;
64060;SDS011;60147;55.036;73.242;2022-10-31T01:43:49;69.95;;;23.83;;
64060;SDS011;60147;55.036;73.242;2022-10-31T01:46:22;60.63;;;22.70;;
64060;SDS011;60147;55.036;73.242;2022-10-31T01:48:49;56.38;;;22.90;;
64060;SDS011;60147;55.036;73.242;2022-10-31T01:51:27;59.50;;;23.85;;
64060;SDS011;60147;55.036;73.242;2022-10-31T01:53:55;60.72;;;22.42;;
64060;SDS011;60147;55.036;73.242;2022-10-31T01:56:30;62.47;;;23.40;;
64060;SDS011;60147;55.036;73.242;2022-10-31T01:58:57;64.80;;;22.88;;
64060;SDS011;60147;55.036;73.242;2022-10-31T02:01:25;64.63;;;24.30;;
64060;SDS011;60147;55.036;73.242;2022-10-31T02:03:51;60.13;;;21.55;;
64060;SDS011;60147;55.036;73.242;2022-10-31T02:06:24;66.05;;;23.45;;
64060;SDS011;60147;55.036;73.242;2022-10-31T02:08:52;77.32;;;23.58;;
64060;SDS011;60147;55.036;73.242;2022-10-31T02:11:20;56.78;;;20.40;;
64060;SDS011;60147;55.036;73.242;2022-10-31T02:13:46;30.60;;;12.32;;
64060;SDS011;60147;55.036;73.242;2022-10-31T02:16:12;29.23;;;12.55;;
64060;SDS011;60147;55.036;73.242;2022-10-31T02:18:43;36.33;;;14.68;;
64060;SDS011;60147;55.036;73.242;2022-10-31T02:21:33;20.33;;;9.90;;
64060;SDS011;60147;55.036;73.242;2022-10-31T02:26:53;25.85;;;13.00;;
64060;SDS011;60147;55.036;73.242;2022-10-31T02:29:45;28.23;;;14.05;;
64060;SDS011;60147;55.036;73.242;2022-10-31T02:34:59;26.58;;;12.55;;
64060;SDS011;60147;55.036;73.242;2022-10-31T02:43:02;26.33;;;14.07;;
64060;SDS011;60147;55.036;73.242;2022-10-31T02:45:35;28.05;;;12.70;;
64060;SDS011;60147;55.036;73.242;2022-10-31T02:48:06;35.95;;;14.25;;
64060;SDS011;60147;55.036;73.242;2022-10-31T02:50:34;27.92;;;13.52;;
64060;SDS011;60147;55.036;73.242;2022-10-31T02:53:02;40.03;;;15.18;;
64060;SDS011;60147;55.036;73.242;2022-10-31T02:55:42;31.98;;;15.40;;
64060;SDS011;60147;55.036;73.242;2022-10-31T02:58:11;32.55;;;15.07;;
64060;SDS011;60147;55.036;73.242;2022-10-31T03:00:45;36.28;;;15.57;;
64060;SDS011;60147;55.036;73.242;2022-10-31T03:03:19;37.20;;;15.75;;
64060;SDS011;60147;55.036;73.242;2022-10-31T03:06:03;29.10;;;15.38;;
64060;SDS011;60147;55.036;73.242;2022-10-31T03:08:35;29.95;;;14.43;;
64060;SDS011;60147;55.036;73.242;2022-10-31T03:11:08;36.35;;;15.95;;
64060;SDS011;60147;55.036;73.242;2022-10-31T03:13:41;30.75;;;15.63;;
64060;SDS011;60147;55.036;73.242;2022-10-31T03:16:13;36.78;;;15.73;;
64060;SDS011;60147;55.036;73.242;2022-10-31T03:18:40;32.25;;;15.50;;
64060;SDS011;60147;55.036;73.242;2022-10-31T03:21:20;35.78;;;16.65;;
64060;SDS011;60147;55.036;73.242;2022-10-31T03:23:47;33.42;;;15.68;;
64060;SDS011;60147;55.036;73.242;2022-10-31T03:26:19;36.88;;;16.63;;
64060;SDS011;60147;55.036;73.242;2022-10-31T03:28:48;33.95;;;16.00;;
64060;SDS011;60147;55.036;73.242;2022-10-31T03:31:16;39.72;;;16.75;;
64060;SDS011;60147;55.036;73.242;2022-10-31T03:33:47;34.13;;;16.40;;
64060;SDS011;60147;55.036;73.242;2022-10-31T03:36:14;32.17;;;15.52;;
64060;SDS011;60147;55.036;73.242;2022-10-31T03:38:42;26.90;;;13.88;;
64060;SDS011;60147;55.036;73.242;2022-10-31T03:41:10;28.52;;;14.77;;
64060;SDS011;60147;55.036;73.242;2022-10-31T03:43:38;38.60;;;17.20;;
64060;SDS011;60147;55.036;73.242;2022-10-31T03:46:06;45.10;;;16.67;;
64060;SDS011;60147;55.036;73.242;2022-10-31T03:48:32;34.08;;;16.77;;
64060;SDS011;60147;55.036;73.242;2022-10-31T03:53:25;40.60;;;19.42;;
64060;SDS011;60147;55.036;73.242;2022-10-31T03:56:02;32.60;;;15.38;;
64060;SDS011;60147;55.036;73.242;2022-10-31T03:58:35;40.20;;;17.50;;
64060;SDS011;60147;55.036;73.242;2022-10-31T04:01:05;47.13;;;18.58;;
64060;SDS011;60147;55.036;73.242;2022-10-31T04:03:33;39.25;;;18.27;;
64060;SDS011;60147;55.036;73.242;2022-10-31T04:06:02;35.10;;;16.77;;
64060;SDS011;60147;55.036;73.242;2022-10-31T04:08:31;37.40;;;16.40;;
64060;SDS011;60147;55.036;73.242;2022-10-31T04:10:59;38.17;;;18.02;;
64060;SDS011;60147;55.036;73.242;2022-10-31T04:13:29;47.13;;;18.23;;
64060;SDS011;60147;55.036;73.242;2022-10-31T04:16:07;47.03;;;19.67;;
64060;SDS011;60147;55.036;73.242;2022-10-31T04:18:44;51.78;;;19.67;;
64060;SDS011;60147;55.036;73.242;2022-10-31T04:23:42;44.92;;;18.10;;
64060;SDS011;60147;55.036;73.242;2022-10-31T04:26:18;35.65;;;16.38;;
64060;SDS011;60147;55.036;73.242;2022-10-31T04:28:49;35.83;;;17.40;;
64060;SDS011;60147;55.036;73.242;2022-10-31T04:31:15;35.53;;;16.65;;
64060;SDS011;60147;55.036;73.242;2022-10-31T04:33:43;41.10;;;18.98;;
64060;SDS011;60147;55.036;73.242;2022-10-31T04:36:11;41.53;;;19.60;;
64060;SDS011;60147;55.036;73.242;2022-10-31T04:38:36;51.40;;;19.77;;
64060;SDS011;60147;55.036;73.242;2022-10-31T04:41:19;41.42;;;19.02;;
64060;SDS011;60147;55.036;73.242;2022-10-31T04:43:55;47.95;;;20.55;;
64060;SDS011;60147;55.036;73.242;2022-10-31T04:46:21;50.30;;;20.92;;
64060;SDS011;60147;55.036;73.242;2022-10-31T04:48:47;50.90;;;21.48;;
64060;SDS011;60147;55.036;73.242;2022-10-31T04:51:13;54.67;;;21.52;;
64060;SDS011;60147;55.036;73.242;2022-10-31T04:53:39;56.03;;;24.08;;
64060;SDS011;60147;55.036;73.242;2022-10-31T04:56:23;52.00;;;21.23;;
64060;SDS011;60147;55.036;73.242;2022-10-31T04:59:05;47.55;;;20.65;;
64060;SDS011;60147;55.036;73.242;2022-10-31T05:01:43;48.88;;;20.90;;
64060;SDS011;60147;55.036;73.242;2022-10-31T05:04:10;50.13;;;19.63;;
64060;SDS011;60147;55.036;73.242;2022-10-31T05:06:36;43.08;;;19.75;;
64060;SDS011;60147;55.036;73.242;2022-10-31T05:09:02;48.35;;;20.10;;
64060;SDS011;60147;55.036;73.242;2022-10-31T05:11:28;51.63;;;21.58;;
64060;SDS011;60147;55.036;73.242;2022-10-31T05:14:00;41.50;;;18.65;;
64060;SDS011;60147;55.036;73.242;2022-10-31T05:16:46;50.13;;;21.35;;
64060;SDS011;60147;55.036;73.242;2022-10-31T05:19:32;52.53;;;22.55;;
64060;SDS011;60147;55.036;73.242;2022-10-31T05:22:41;50.72;;;20.75;;
64060;SDS011;60147;55.036;73.242;2022-10-31T05:25:07;39.30;;;18.40;;
64060;SDS011;60147;55.036;73.242;2022-10-31T05:30:04;56.70;;;21.08;;
64060;SDS011;60147;55.036;73.242;2022-10-31T05:32:35;41.85;;;18.00;;
64060;SDS011;60147;55.036;73.242;2022-10-31T05:35:26;47.03;;;19.30;;
64060;SDS011;60147;55.036;73.242;2022-10-31T05:38:20;47.53;;;18.42;;
64060;SDS011;60147;55.036;73.242;2022-10-31T05:40:47;48.67;;;20.02;;
64060;SDS011;60147;55.036;73.242;2022-10-31T05:43:14;38.60;;;16.95;;
64060;SDS011;60147;55.036;73.242;2022-10-31T05:45:40;51.05;;;18.25;;
64060;SDS011;60147;55.036;73.242;2022-10-31T05:48:14;44.83;;;19.95;;
64060;SDS011;60147;55.036;73.242;2022-10-31T05:51:03;45.58;;;19.30;;
64060;SDS011;60147;55.036;73.242;2022-10-31T05:53:29;57.55;;;21.10;;
64060;SDS011;60147;55.036;73.242;2022-10-31T05:55:55;48.88;;;19.85;;
64060;SDS011;60147;55.036;73.242;2022-10-31T05:58:21;53.75;;;22.85;;
64060;SDS011;60147;55.036;73.242;2022-10-31T06:01:03;53.03;;;21.08;;
64060;SDS011;60147;55.036;73.242;2022-10-31T06:03:32;49.58;;;20.30;;
64060;SDS011;60147;55.036;73.242;2022-10-31T06:06:00;41.25;;;19.48;;
64060;SDS011;60147;55.036;73.242;2022-10-31T06:08:33;42.75;;;18.95;;
64060;SDS011;60147;55.036;73.242;2022-10-31T06:11:04;54.20;;;19.58;;
64060;SDS011;60147;55.036;73.242;2022-10-31T06:13:50;55.35;;;20.00;;
64060;SDS011;60147;55.036;73.242;2022-10-31T06:16:22;54.42;;;20.98;;
64060;SDS011;60147;55.036;73.242;2022-10-31T06:18:59;47.42;;;19.45;;
64060;SDS011;60147;55.036;73.242;2022-10-31T06:21:25;55.90;;;20.30;;
64060;SDS011;60147;55.036;73.242;2022-10-31T06:23:51;48.97;;;20.65;;
64060;SDS011;60147;55.036;73.242;2022-10-31T06:26:48;44.03;;;18.85;;
64060;SDS011;60147;55.036;73.242;2022-10-31T06:29:14;54.22;;;23.10;;
64060;SDS011;60147;55.036;73.242;2022-10-31T06:32:00;54.78;;;22.38;;
64060;SDS011;60147;55.036;73.242;2022-10-31T06:34:28;41.45;;;18.40;;
64060;SDS011;60147;55.036;73.242;2022-10-31T06:36:54;35.25;;;17.05;;
64060;SDS011;60147;55.036;73.242;2022-10-31T06:39:28;45.88;;;18.48;;
64060;SDS011;60147;55.036;73.242;2022-10-31T06:41:54;37.88;;;15.70;;
64060;SDS011;60147;55.036;73.242;2022-10-31T06:44:21;31.27;;;13.32;;
64060;SDS011;60147;55.036;73.242;2022-10-31T06:47:16;29.17;;;13.75;;
64060;SDS011;60147;55.036;73.242;2022-10-31T06:50:02;28.90;;;14.48;;
64060;SDS011;60147;55.036;73.242;2022-10-31T06:52:28;32.78;;;12.55;;
64060;SDS011;60147;55.036;73.242;2022-10-31T06:54:55;28.50;;;13.60;;
64060;SDS011;60147;55.036;73.242;2022-10-31T06:57:22;29.90;;;12.57;;
64060;SDS011;60147;55.036;73.242;2022-10-31T06:59:48;27.40;;;12.73;;
64060;SDS011;60147;55.036;73.242;2022-10-31T07:02:32;31.20;;;13.25;;
64060;SDS011;60147;55.036;73.242;2022-10-31T07:05:00;32.63;;;14.20;;
64060;SDS011;60147;55.036;73.242;2022-10-31T07:07:26;33.38;;;14.18;;
64060;SDS011;60147;55.036;73.242;2022-10-31T07:09:53;27.52;;;13.65;;
64060;SDS011;60147;55.036;73.242;2022-10-31T07:12:35;30.35;;;13.30;;
64060;SDS011;60147;55.036;73.242;2022-10-31T07:15:01;29.73;;;13.60;;
64060;SDS011;60147;55.036;73.242;2022-10-31T07:17:26;33.00;;;14.35;;
64060;SDS011;60147;55.036;73.242;2022-10-31T07:19:54;34.00;;;15.20;;
64060;SDS011;60147;55.036;73.242;2022-10-31T07:22:20;32.70;;;15.23;;
64060;SDS011;60147;55.036;73.242;2022-10-31T07:24:47;36.92;;;16.52;;
64060;SDS011;60147;55.036;73.242;2022-10-31T07:27:38;36.78;;;16.55;;
64060;SDS011;60147;55.036;73.242;2022-10-31T07:30:07;27.52;;;13.70;;
64060;SDS011;60147;55.036;73.242;2022-10-31T07:32:46;30.80;;;14.43;;
64060;SDS011;60147;55.036;73.242;2022-10-31T07:35:18;29.13;;;12.23;;
64060;SDS011;60147;55.036;73.242;2022-10-31T07:37:53;30.38;;;13.48;;
64060;SDS011;60147;55.036;73.242;2022-10-31T07:40:20;25.95;;;12.15;;
64060;SDS011;60147;55.036;73.242;2022-10-31T07:42:47;24.17;;;13.20;;
64060;SDS011;60147;55.036;73.242;2022-10-31T07:45:34;26.42;;;13.05;;
64060;SDS011;60147;55.036;73.242;2022-10-31T07:48:29;26.60;;;13.07;;
64060;SDS011;60147;55.036;73.242;2022-10-31T07:51:21;31.90;;;13.25;;
64060;SDS011;60147;55.036;73.242;2022-10-31T07:54:05;34.65;;;14.90;;
64060;SDS011;60147;55.036;73.242;2022-10-31T07:56:31;28.33;;;13.35;;
64060;SDS011;60147;55.036;73.242;2022-10-31T07:58:57;35.67;;;16.38;;
64060;SDS011;60147;55.036;73.242;2022-10-31T08:01:23;35.95;;;17.10;;
64060;SDS011;60147;55.036;73.242;2022-10-31T08:04:18;40.45;;;16.30;;
64060;SDS011;60147;55.036;73.242;2022-10-31T08:07:03;28.67;;;14.85;;
64060;SDS011;60147;55.036;73.242;2022-10-31T08:09:33;35.35;;;16.10;;
64060;SDS011;60147;55.036;73.242;2022-10-31T08:12:04;31.48;;;14.68;;
64060;SDS011;60147;55.036;73.242;2022-10-31T08:14:32;30.50;;;14.93;;
64060;SDS011;60147;55.036;73.242;2022-10-31T08:17:08;37.55;;;16.60;;
64060;SDS011;60147;55.036;73.242;2022-10-31T08:20:05;33.20;;;15.60;;
64060;SDS011;60147;55.036;73.242;2022-10-31T08:22:58;35.55;;;16.15;;
64060;SDS011;60147;55.036;73.242;2022-10-31T08:25:27;39.15;;;14.43;;
64060;SDS011;60147;55.036;73.242;2022-10-31T08:27:53;30.73;;;13.55;;
64060;SDS011;60147;55.036;73.242;2022-10-31T08:30:23;31.77;;;14.60;;
64060;SDS011;60147;55.036;73.242;2022-10-31T08:33:17;31.85;;;14.77;;
64060;SDS011;60147;55.036;73.242;2022-10-31T08:36:22;30.45;;;15.55;;
64060;SDS011;60147;55.036;73.242;2022-10-31T08:39:03;31.02;;;15.65;;
64060;SDS011;60147;55.036;73.242;2022-10-31T08:41:30;37.20;;;16.70;;
64060;SDS011;60147;55.036;73.242;2022-10-31T08:43:57;42.17;;;17.98;;
64060;SDS011;60147;55.036;73.242;2022-10-31T08:46:23;35.28;;;17.90;;
64060;SDS011;60147;55.036;73.242;2022-10-31T08:48:53;36.00;;;16.02;;
64060;SDS011;60147;55.036;73.242;2022-10-31T08:51:25;34.78;;;17.45;;
64060;SDS011;60147;55.036;73.242;2022-10-31T08:53:53;43.03;;;17.48;;
64060;SDS011;60147;55.036;73.242;2022-10-31T08:56:32;32.55;;;17.45;;
64060;SDS011;60147;55.036;73.242;2022-10-31T08:58:59;36.97;;;15.85;;
64060;SDS011;60147;55.036;73.242;2022-10-31T09:01:44;37.53;;;18.00;;
64060;SDS011;60147;55.036;73.242;2022-10-31T09:04:20;32.58;;;16.58;;
64060;SDS011;60147;55.036;73.242;2022-10-31T09:06:46;37.13;;;18.42;;
64060;SDS011;60147;55.036;73.242;2022-10-31T09:09:23;36.50;;;16.38;;
64060;SDS011;60147;55.036;73.242;2022-10-31T09:11:49;35.50;;;16.40;;
64060;SDS011;60147;55.036;73.242;2022-10-31T09:14:33;31.73;;;15.27;;
64060;SDS011;60147;55.036;73.242;2022-10-31T09:17:28;30.23;;;14.73;;
64060;SDS011;60147;55.036;73.242;2022-10-31T09:20:17;27.05;;;13.70;;
64060;SDS011;60147;55.036;73.242;2022-10-31T09:22:55;25.10;;;13.98;;
64060;SDS011;60147;55.036;73.242;2022-10-31T09:25:22;26.52;;;12.70;;
64060;SDS011;60147;55.036;73.242;2022-10-31T09:27:58;26.63;;;14.05;;
64060;SDS011;60147;55.036;73.242;2022-10-31T09:30:24;22.13;;;12.15;;
64060;SDS011;60147;55.036;73.242;2022-10-31T09:33:01;22.60;;;12.15;;
64060;SDS011;60147;55.036;73.242;2022-10-31T09:35:27;23.27;;;12.18;;
64060;SDS011;60147;55.036;73.242;2022-10-31T09:38:01;20.33;;;12.52;;
64060;SDS011;60147;55.036;73.242;2022-10-31T09:40:49;28.08;;;13.30;;
64060;SDS011;60147;55.036;73.242;2022-10-31T09:48:32;25.65;;;12.13;;
64060;SDS011;60147;55.036;73.242;2022-10-31T09:54:40;28.75;;;11.35;;
64060;SDS011;60147;55.036;73.242;2022-10-31T09:57:13;19.13;;;10.23;;
64060;SDS011;60147;55.036;73.242;2022-10-31T09:59:41;20.75;;;10.57;;
64060;SDS011;60147;55.036;73.242;2022-10-31T10:02:17;26.75;;;11.52;;
64060;SDS011;60147;55.036;73.242;2022-10-31T10:21:20;23.42;;;10.27;;
64060;SDS011;60147;55.036;73.242;2022-10-31T10:23:55;24.80;;;10.68;;
64060;SDS011;60147;55.036;73.242;2022-10-31T10:26:36;21.77;;;10.00;;
64060;SDS011;60147;55.036;73.242;2022-10-31T10:29:17;21.17;;;10.70;;
64060;SDS011;60147;55.036;73.242;2022-10-31T10:31:52;23.67;;;10.32;;
64060;SDS011;60147;55.036;73.242;2022-10-31T10:36:48;21.55;;;10.45;;
64060;SDS011;60147;55.036;73.242;2022-10-31T10:39:30;23.50;;;10.52;;
64060;SDS011;60147;55.036;73.242;2022-10-31T10:41:58;20.13;;;11.00;;
64060;SDS011;60147;55.036;73.242;2022-10-31T10:44:44;23.73;;;10.65;;
64060;SDS011;60147;55.036;73.242;2022-10-31T10:50:52;21.25;;;11.73;;
64060;SDS011;60147;55.036;73.242;2022-10-31T10:53:32;19.40;;;10.38;;
64060;SDS011;60147;55.036;73.242;2022-10-31T10:56:11;20.63;;;10.73;;
64060;SDS011;60147;55.036;73.242;2022-10-31T10:58:41;28.45;;;11.70;;
64060;SDS011;60147;55.036;73.242;2022-10-31T11:01:11;21.48;;;10.75;;
64060;SDS011;60147;55.036;73.242;2022-10-31T11:03:38;26.48;;;12.85;;
64060;SDS011;60147;55.036;73.242;2022-10-31T11:06:04;25.23;;;13.05;;
64060;SDS011;60147;55.036;73.242;2022-10-31T11:08:31;21.77;;;11.90;;
64060;SDS011;60147;55.036;73.242;2022-10-31T11:11:04;24.55;;;11.20;;
64060;SDS011;60147;55.036;73.242;2022-10-31T11:13:31;30.15;;;12.77;;
64060;SDS011;60147;55.036;73.242;2022-10-31T11:16:00;28.40;;;12.70;;
64060;SDS011;60147;55.036;73.242;2022-10-31T11:18:39;24.15;;;12.30;;
64060;SDS011;60147;55.036;73.242;2022-10-31T11:21:05;26.17;;;13.23;;
64060;SDS011;60147;55.036;73.242;2022-10-31T11:23:31;29.48;;;12.63;;
64060;SDS011;60147;55.036;73.242;2022-10-31T11:28:32;31.33;;;13.55;;
64060;SDS011;60147;55.036;73.242;2022-10-31T11:31:04;25.63;;;13.90;;
64060;SDS011;60147;55.036;73.242;2022-10-31T11:34:18;25.55;;;13.13;;
64060;SDS011;60147;55.036;73.242;2022-10-31T11:36:35;32.50;;;13.65;;
64060;SDS011;60147;55.036;73.242;2022-10-31T11:39:14;23.95;;;13.40;;
64060;SDS011;60147;55.036;73.242;2022-10-31T11:41:41;33.85;;;14.95;;
64060;SDS011;60147;55.036;73.242;2022-10-31T11:44:19;30.70;;;16.10;;
64060;SDS011;60147;55.036;73.242;2022-10-31T11:46:56;31.48;;;15.30;;
64060;SDS011;60147;55.036;73.242;2022-10-31T11:49:28;35.10;;;16.15;;
64060;SDS011;60147;55.036;73.242;2022-10-31T11:52:00;33.75;;;16.15;;
64060;SDS011;60147;55.036;73.242;2022-10-31T11:54:29;34.90;;;15.90;;
64060;SDS011;60147;55.036;73.242;2022-10-31T11:56:56;35.63;;;15.82;;
64060;SDS011;60147;55.036;73.242;2022-10-31T11:59:25;35.30;;;14.75;;
64060;SDS011;60147;55.036;73.242;2022-10-31T12:01:52;34.90;;;15.23;;
64060;SDS011;60147;55.036;73.242;2022-10-31T12:04:34;36.80;;;15.30;;
64060;SDS011;60147;55.036;73.242;2022-10-31T12:07:02;30.80;;;14.52;;
64060;SDS011;60147;55.036;73.242;2022-10-31T12:09:29;27.75;;;14.85;;
64060;SDS011;60147;55.036;73.242;2022-10-31T12:19:25;33.28;;;14.88;;
64060;SDS011;60147;55.036;73.242;2022-10-31T12:31:58;40.75;;;16.65;;
64060;SDS011;60147;55.036;73.242;2022-10-31T12:37:10;37.80;;;17.50;;
64060;SDS011;60147;55.036;73.242;2022-10-31T12:47:32;45.40;;;18.77;;
64060;SDS011;60147;55.036;73.242;2022-10-31T12:50:22;40.70;;;17.45;;
64060;SDS011;60147;55.036;73.242;2022-10-31T12:52:57;50.10;;;19.30;;
64060;SDS011;60147;55.036;73.242;2022-10-31T13:00:42;41.15;;;18.83;;
64060;SDS011;60147;55.036;73.242;2022-10-31T13:03:23;36.15;;;17.48;;
64060;SDS011;60147;55.036;73.242;2022-10-31T13:05:54;33.72;;;17.25;;
64060;SDS011;60147;55.036;73.242;2022-10-31T13:08:38;37.65;;;16.80;;
64060;SDS011;60147;55.036;73.242;2022-10-31T13:11:15;30.42;;;16.08;;
64060;SDS011;60147;55.036;73.242;2022-10-31T13:16:19;39.78;;;17.63;;
64060;SDS011;60147;55.036;73.242;2022-10-31T13:21:25;30.05;;;16.08;;
64060;SDS011;60147;55.036;73.242;2022-10-31T13:23:52;32.65;;;15.02;;
64060;SDS011;60147;55.036;73.242;2022-10-31T13:31:40;33.65;;;16.13;;
64060;SDS011;60147;55.036;73.242;2022-10-31T13:34:18;42.65;;;15.82;;
64060;SDS011;60147;55.036;73.242;2022-10-31T13:40:33;32.53;;;17.40;;
64060;SDS011;60147;55.036;73.242;2022-10-31T13:42:48;38.47;;;16.35;;
64060;SDS011;60147;55.036;73.242;2022-10-31T13:45:20;33.22;;;16.55;;
64060;SDS011;60147;55.036;73.242;2022-10-31T13:47:59;39.22;;;18.25;;
64060;SDS011;60147;55.036;73.242;2022-10-31T13:52:52;46.60;;;19.15;;
64060;SDS011;60147;55.036;73.242;2022-10-31T13:58:53;44.35;;;19.20;;
64060;SDS011;60147;55.036;73.242;2022-10-31T14:03:45;47.15;;;21.50;;
64060;SDS011;60147;55.036;73.242;2022-10-31T14:06:15;50.17;;;20.75;;
64060;SDS011;60147;55.036;73.242;2022-10-31T14:08:47;51.47;;;22.23;;
64060;SDS011;60147;55.036;73.242;2022-10-31T14:11:22;56.80;;;22.35;;
64060;SDS011;60147;55.036;73.242;2022-10-31T14:13:55;50.38;;;22.67;;
64060;SDS011;60147;55.036;73.242;2022-10-31T14:16:26;56.63;;;23.17;;
64060;SDS011;60147;55.036;73.242;2022-10-31T14:18:58;47.03;;;23.13;;
64060;SDS011;60147;55.036;73.242;2022-10-31T14:23:56;45.97;;;21.02;;
64060;SDS011;60147;55.036;73.242;2022-10-31T14:28:55;54.38;;;22.13;;
64060;SDS011;60147;55.036;73.242;2022-10-31T14:33:50;50.53;;;21.45;;
64060;SDS011;60147;55.036;73.242;2022-10-31T14:36:18;43.00;;;20.65;;
64060;SDS011;60147;55.036;73.242;2022-10-31T14:39:02;44.53;;;19.10;;
64060;SDS011;60147;55.036;73.242;2022-10-31T14:41:35;52.92;;;20.02;;
64060;SDS011;60147;55.036;73.242;2022-10-31T14:49:32;42.30;;;19.48;;
64060;SDS011;60147;55.036;73.242;2022-10-31T14:52:07;47.70;;;20.27;;
64060;SDS011;60147;55.036;73.242;2022-10-31T14:54:40;48.42;;;20.35;;
64060;SDS011;60147;55.036;73.242;2022-10-31T14:57:07;48.40;;;20.77;;
64060;SDS011;60147;55.036;73.242;2022-10-31T14:59:38;45.53;;;19.92;;
64060;SDS011;60147;55.036;73.242;2022-10-31T15:02:14;38.70;;;18.45;;
64060;SDS011;60147;55.036;73.242;2022-10-31T15:04:46;46.00;;;19.92;;
64060;SDS011;60147;55.036;73.242;2022-10-31T15:07:21;48.22;;;18.55;;
64060;SDS011;60147;55.036;73.242;2022-10-31T15:09:59;44.53;;;20.08;;
64060;SDS011;60147;55.036;73.242;2022-10-31T15:12:29;47.15;;;19.48;;
64060;SDS011;60147;55.036;73.242;2022-10-31T15:14:55;37.17;;;17.60;;
64060;SDS011;60147;55.036;73.242;2022-10-31T15:17:22;38.92;;;17.05;;
64060;SDS011;60147;55.036;73.242;2022-10-31T15:19:49;35.00;;;16.83;;
64060;SDS011;60147;55.036;73.242;2022-10-31T15:22:16;39.80;;;19.40;;
64060;SDS011;60147;55.036;73.242;2022-10-31T15:24:48;40.30;;;18.80;;
64060;SDS011;60147;55.036;73.242;2022-10-31T15:27:18;43.45;;;18.90;;
64060;SDS011;60147;55.036;73.242;2022-10-31T15:29:48;35.50;;;17.20;;
64060;SDS011;60147;55.036;73.242;2022-10-31T15:32:19;41.80;;;18.27;;
64060;SDS011;60147;55.036;73.242;2022-10-31T15:34:50;40.75;;;18.20;;
64060;SDS011;60147;55.036;73.242;2022-10-31T15:37:18;44.03;;;18.20;;
64060;SDS011;60147;55.036;73.242;2022-10-31T15:39:45;35.65;;;16.33;;
64060;SDS011;60147;55.036;73.242;2022-10-31T15:47:25;48.78;;;19.58;;
64060;SDS011;60147;55.036;73.242;2022-10-31T15:49:52;46.70;;;19.55;;
64060;SDS011;60147;55.036;73.242;2022-10-31T15:52:27;43.72;;;19.73;;
64060;SDS011;60147;55.036;73.242;2022-10-31T15:55:01;45.33;;;19.02;;
64060;SDS011;60147;55.036;73.242;2022-10-31T15:57:41;41.97;;;18.70;;
64060;SDS011;60147;55.036;73.242;2022-10-31T16:00:26;48.30;;;18.75;;
64060;SDS011;60147;55.036;73.242;2022-10-31T16:05:51;37.58;;;17.88;;
64060;SDS011;60147;55.036;73.242;2022-10-31T16:10:49;41.53;;;18.05;;
64060;SDS011;60147;55.036;73.242;2022-10-31T16:16:03;33.75;;;15.80;;
64060;SDS011;60147;55.036;73.242;2022-10-31T16:18:30;36.63;;;16.35;;
64060;SDS011;60147;55.036;73.242;2022-10-31T16:21:05;33.05;;;15.27;;
64060;SDS011;60147;55.036;73.242;2022-10-31T16:26:05;43.67;;;17.17;;
64060;SDS011;60147;55.036;73.242;2022-10-31T16:28:36;37.17;;;16.30;;
64060;SDS011;60147;55.036;73.242;2022-10-31T16:31:06;35.83;;;16.75;;
64060;SDS011;60147;55.036;73.242;2022-10-31T16:33:43;39.50;;;17.52;;
64060;SDS011;60147;55.036;73.242;2022-10-31T16:39:03;43.88;;;17.85;;
64060;SDS011;60147;55.036;73.242;2022-10-31T16:41:43;48.70;;;18.35;;
64060;SDS011;60147;55.036;73.242;2022-10-31T16:44:14;42.77;;;19.17;;
64060;SDS011;60147;55.036;73.242;2022-10-31T16:46:41;41.88;;;20.63;;
64060;SDS011;60147;55.036;73.242;2022-10-31T16:49:18;47.15;;;24.10;;
64060;SDS011;60147;55.036;73.242;2022-10-31T16:51:44;57.80;;;27.73;;
64060;SDS011;60147;55.036;73.242;2022-10-31T16:54:20;49.08;;;26.25;;
64060;SDS011;60147;55.036;73.242;2022-10-31T16:56:45;48.92;;;27.00;;
64060;SDS011;60147;55.036;73.242;2022-10-31T16:59:11;60.00;;;28.80;;
64060;SDS011;60147;55.036;73.242;2022-10-31T17:01:38;50.45;;;25.23;;